createdAt,value
2023-04-08T00:05:02.764Z,7.80
2023-04-08T00:10:19.262Z,7.70
2023-04-08T00:15:35.146Z,7.70
2023-04-08T00:20:51.507Z,7.60
2023-04-08T00:26:07.375Z,7.50
2023-04-08T00:31:23.488Z,7.50
2023-04-08T00:36:40.586Z,7.30
2023-04-08T00:41:57.766Z,7.10
2023-04-08T00:47:15.043Z,6.90
2023-04-08T00:52:30.808Z,6.60
2023-04-08T00:57:47.298Z,6.30
2023-04-08T01:03:19.009Z,6.20
2023-04-08T01:08:36.894Z,6.10
2023-04-08T01:13:56.390Z,5.90
2023-04-08T01:19:24.584Z,5.80
2023-04-08T01:24:44.878Z,5.60
2023-04-08T01:30:03.516Z,5.70
2023-04-08T01:35:19.908Z,5.60
2023-04-08T01:40:38.111Z,5.60
2023-04-08T01:45:58.601Z,5.50
2023-04-08T01:51:16.892Z,5.50
2023-04-08T01:56:39.545Z,5.50
2023-04-08T02:01:55.839Z,5.40
2023-04-08T02:07:12.520Z,5.00
2023-04-08T02:12:29.002Z,4.90
2023-04-08T02:17:51.381Z,5.00
2023-04-08T02:23:23.031Z,4.90
2023-04-08T02:28:42.177Z,4.90
2023-04-08T02:33:59.443Z,4.80
2023-04-08T02:39:15.077Z,4.70
2023-04-08T02:44:30.904Z,4.70
2023-04-08T02:49:46.751Z,4.70
2023-04-08T02:55:03.275Z,4.70
2023-04-08T03:00:19.217Z,4.50
2023-04-08T03:05:35.387Z,4.50
2023-04-08T03:10:51.924Z,4.60
2023-04-08T03:16:08.092Z,4.60
2023-04-08T03:21:24.804Z,4.70
2023-04-08T03:26:40.529Z,4.90
2023-04-08T03:31:56.773Z,4.80
2023-04-08T03:37:12.403Z,4.90
2023-04-08T03:42:27.887Z,4.70
2023-04-08T03:47:43.365Z,4.70
2023-04-08T03:52:59.408Z,4.70
2023-04-08T03:58:15.952Z,4.50
2023-04-08T04:03:32.187Z,4.40
2023-04-08T04:08:48.390Z,4.60
2023-04-08T04:14:04.651Z,4.60
2023-04-08T04:19:20.510Z,4.70
2023-04-08T04:24:36.417Z,4.80
2023-04-08T04:29:52.350Z,4.90
2023-04-08T04:35:09.513Z,4.90
2023-04-08T04:40:25.192Z,4.90
2023-04-08T04:45:41.016Z,4.80
2023-04-08T04:50:58.088Z,4.80
2023-04-08T04:56:14.036Z,4.90
2023-04-08T05:01:30.882Z,5.00
2023-04-08T05:06:46.684Z,5.10
2023-04-08T05:12:02.468Z,5.20
2023-04-08T05:17:17.874Z,5.30
2023-04-08T05:22:34.611Z,5.50
2023-04-08T05:27:50.248Z,5.60
2023-04-08T05:33:06.297Z,5.70
2023-04-08T05:38:22.141Z,5.60
2023-04-08T05:43:38.266Z,5.50
2023-04-08T05:48:54.322Z,5.90
2023-04-08T05:54:10.552Z,6.10
2023-04-08T05:59:26.326Z,6.20
2023-04-08T06:04:41.889Z,6.40
2023-04-08T06:09:57.743Z,6.50
2023-04-08T06:15:13.556Z,6.70
2023-04-08T06:20:29.577Z,6.90
2023-04-08T06:25:45.426Z,7.20
2023-04-08T06:31:01.674Z,7.50
2023-04-08T06:36:17.502Z,7.40
2023-04-08T06:41:33.684Z,7.50
2023-04-08T06:46:49.286Z,7.60
2023-04-08T06:52:06.889Z,7.70
2023-04-08T06:57:22.413Z,7.70
2023-04-08T07:02:38.958Z,7.70
2023-04-08T07:07:55.211Z,7.70
2023-04-08T07:13:11.612Z,8.00
2023-04-08T07:18:27.650Z,8.10
2023-04-08T07:23:43.305Z,7.90
2023-04-08T07:28:59.374Z,8.00
2023-04-08T07:34:15.135Z,8.00
2023-04-08T07:39:31.265Z,8.00
2023-04-08T07:44:47.044Z,8.10
2023-04-08T07:50:04.083Z,8.10
2023-04-08T07:55:19.853Z,8.00
2023-04-08T08:00:35.717Z,8.00
2023-04-08T08:05:51.310Z,8.10
2023-04-08T08:11:07.238Z,7.90
2023-04-08T08:16:22.627Z,7.80
2023-04-08T08:21:39.790Z,7.90
2023-04-08T08:26:55.917Z,7.80
2023-04-08T08:32:11.584Z,7.90
2023-04-08T08:37:28.068Z,7.90
2023-04-08T08:42:52.519Z,8.00
2023-04-08T08:48:09.453Z,8.00
2023-04-08T08:53:35.082Z,8.00
2023-04-08T08:58:51.797Z,7.90
2023-04-08T09:04:23.194Z,8.00
2023-04-08T09:09:52.403Z,8.10
2023-04-08T09:15:10.276Z,8.10
2023-04-08T09:20:26.307Z,8.10
2023-04-08T09:25:42.169Z,8.30
2023-04-08T09:30:58.910Z,8.30
2023-04-08T09:36:16.604Z,8.30
2023-04-08T09:41:35.683Z,8.20
2023-04-08T09:46:51.635Z,8.00
2023-04-08T09:52:08.289Z,8.00
2023-04-08T09:57:35.950Z,8.10
2023-04-08T10:03:13.699Z,8.00
2023-04-08T10:08:31.720Z,8.30
2023-04-08T10:13:48.473Z,8.40
2023-04-08T10:19:50.640Z,8.70
2023-04-08T10:25:18.416Z,8.70
2023-04-08T10:30:34.219Z,9.30
2023-04-08T10:35:55.114Z,9.30
2023-04-08T10:41:14.563Z,9.50
2023-04-08T10:46:38.418Z,9.50
2023-04-08T10:51:54.020Z,9.30
2023-04-08T10:57:10.145Z,9.10
2023-04-08T11:02:33.893Z,8.90
2023-04-08T11:07:49.937Z,9.10
2023-04-08T11:13:09.148Z,9.10
2023-04-08T11:18:26.499Z,9.10
2023-04-08T11:23:43.247Z,9.10
2023-04-08T11:29:01.266Z,9.10
2023-04-08T11:34:23.609Z,9.20
2023-04-08T11:39:46.666Z,9.10
2023-04-08T11:45:02.502Z,8.90
2023-04-08T11:50:26.165Z,9.00
2023-04-08T11:55:41.984Z,9.00
2023-04-08T12:00:57.958Z,8.60
2023-04-08T12:06:13.371Z,8.60
2023-04-08T12:11:29.221Z,8.60
2023-04-08T12:16:45.080Z,8.70
2023-04-08T12:22:01.555Z,8.90
2023-04-08T12:27:17.412Z,9.10
2023-04-08T12:32:33.741Z,9.10
2023-04-08T12:37:49.185Z,9.10
2023-04-08T12:43:05.106Z,9.00
2023-04-08T12:48:20.919Z,9.00
2023-04-08T12:53:36.584Z,9.00
2023-04-08T12:58:52.418Z,9.00
2023-04-08T13:04:08.187Z,8.70
2023-04-08T13:09:24.027Z,8.80
2023-04-08T13:14:39.597Z,9.00
2023-04-08T13:19:55.696Z,9.20
2023-04-08T13:25:11.682Z,9.30
2023-04-08T13:30:27.459Z,9.40
2023-04-08T13:35:44.184Z,9.40
2023-04-08T13:41:00.180Z,9.40
2023-04-08T13:46:16.600Z,9.50
2023-04-08T13:51:32.556Z,9.30
2023-04-08T13:56:48.370Z,9.30
2023-04-08T14:02:04.540Z,9.40
2023-04-08T14:07:20.567Z,9.20
2023-04-08T14:12:36.552Z,9.50
2023-04-08T14:17:52.493Z,9.50
2023-04-08T14:23:08.634Z,9.70
2023-04-08T14:28:24.493Z,9.70
2023-04-08T14:33:41.032Z,10.00
2023-04-08T14:38:56.829Z,9.70
2023-04-08T14:44:12.717Z,9.50
2023-04-08T14:49:28.213Z,9.50
2023-04-08T14:54:45.333Z,9.40
2023-04-08T15:00:01.016Z,9.20
2023-04-08T15:05:16.953Z,9.10
2023-04-08T15:10:33.093Z,9.00
2023-04-08T15:15:48.938Z,8.90
2023-04-08T15:21:04.940Z,8.80
2023-04-08T15:26:22.034Z,8.80
2023-04-08T15:31:38.128Z,8.70
2023-04-08T15:36:53.704Z,8.70
2023-04-08T15:42:09.781Z,8.60
2023-04-08T15:47:25.879Z,8.60
2023-04-08T15:52:42.206Z,8.60
2023-04-08T15:57:58.636Z,8.60
2023-04-08T16:03:14.997Z,8.50
2023-04-08T16:08:32.608Z,8.40
2023-04-08T16:13:48.318Z,8.30
2023-04-08T16:19:04.816Z,8.40
2023-04-08T16:24:21.053Z,8.30
2023-04-08T16:29:36.971Z,8.30
2023-04-08T16:34:52.798Z,8.30
2023-04-08T16:40:10.500Z,8.30
2023-04-08T16:45:29.852Z,8.20
2023-04-08T16:50:46.250Z,8.10
2023-04-08T16:56:02.767Z,8.00
2023-04-08T17:01:18.327Z,8.00
2023-04-08T17:06:37.796Z,7.90
2023-04-08T17:11:56.033Z,7.80
2023-04-08T17:17:11.760Z,7.70
2023-04-08T17:22:27.812Z,7.60
2023-04-08T17:27:43.584Z,7.50
2023-04-08T17:32:59.099Z,7.50
2023-04-08T17:38:15.080Z,7.40
2023-04-08T17:43:30.516Z,7.40
2023-04-08T17:48:46.684Z,7.30
2023-04-08T17:54:02.452Z,7.20
2023-04-08T17:59:18.602Z,7.30
2023-04-08T18:04:34.611Z,7.10
2023-04-08T18:09:50.902Z,7.20
2023-04-08T18:15:07.230Z,7.30
2023-04-08T18:20:23.219Z,7.20
2023-04-08T18:25:41.253Z,7.30
2023-04-08T18:30:57.190Z,7.20
2023-04-08T18:36:14.110Z,7.00
2023-04-08T18:41:29.937Z,7.00
2023-04-08T18:46:46.075Z,7.00
2023-04-08T18:52:02.908Z,7.10
2023-04-08T18:57:19.285Z,7.10
2023-04-08T19:02:36.096Z,7.10
2023-04-08T19:07:53.181Z,7.10
2023-04-08T19:13:09.110Z,6.90
2023-04-08T19:18:25.159Z,6.90
2023-04-08T19:23:41.717Z,7.00
2023-04-08T19:28:57.616Z,7.10
2023-04-08T19:34:13.456Z,6.90
2023-04-08T19:39:29.511Z,6.90
2023-04-08T19:44:47.599Z,6.90
2023-04-08T19:50:03.701Z,6.80
2023-04-08T19:55:19.808Z,6.80
2023-04-08T20:00:38.855Z,6.90
2023-04-08T20:05:54.736Z,7.00
2023-04-08T20:11:11.451Z,6.90
2023-04-08T20:16:27.876Z,6.90
2023-04-08T20:21:44.756Z,6.90
2023-04-08T20:27:00.517Z,6.80
2023-04-08T20:32:16.336Z,6.80
2023-04-08T20:37:33.732Z,6.80
2023-04-08T20:42:49.839Z,6.70
2023-04-08T20:48:06.094Z,6.70
2023-04-08T20:53:23.823Z,6.70
2023-04-08T20:58:39.740Z,6.70
2023-04-08T21:03:57.398Z,6.60
2023-04-08T21:09:15.183Z,6.70
2023-04-08T21:14:34.924Z,6.60
2023-04-08T21:19:50.967Z,6.60
2023-04-08T21:25:07.458Z,6.50
2023-04-08T21:30:23.393Z,6.40
2023-04-08T21:35:39.539Z,6.40
2023-04-08T21:40:55.928Z,6.40
2023-04-08T21:46:11.969Z,6.40
2023-04-08T21:51:27.708Z,6.30
2023-04-08T21:56:43.870Z,6.30
2023-04-08T22:01:59.922Z,6.30
2023-04-08T22:07:15.972Z,6.30
2023-04-08T22:12:31.951Z,6.20
2023-04-08T22:17:47.679Z,6.20
2023-04-08T22:23:03.696Z,6.20
2023-04-08T22:28:19.785Z,6.20
2023-04-08T22:33:35.751Z,6.10
2023-04-08T22:38:51.735Z,6.10
2023-04-08T22:44:08.301Z,6.10
2023-04-08T22:49:24.371Z,6.10
2023-04-08T22:54:40.464Z,6.00
2023-04-08T22:59:56.344Z,6.00
2023-04-08T23:05:12.291Z,6.00
2023-04-08T23:10:28.349Z,6.00
2023-04-08T23:15:44.726Z,6.00
2023-04-08T23:21:00.338Z,6.00
2023-04-08T23:26:21.084Z,6.00
2023-04-08T23:31:36.966Z,6.00
2023-04-08T23:36:52.870Z,5.80
2023-04-08T23:42:08.706Z,5.80
2023-04-08T23:47:24.740Z,5.90
2023-04-08T23:52:40.852Z,5.90
2023-04-08T23:57:56.947Z,5.80
